createdAt,value
2022-08-05T00:00:51.705Z,51.10
2022-08-05T00:01:51.706Z,51.50
2022-08-05T00:02:52.245Z,51.42
2022-08-05T00:03:51.638Z,51.62
2022-08-05T00:04:55.421Z,52.00
2022-08-05T00:06:05.365Z,51.98
2022-08-05T00:06:52.057Z,51.68
2022-08-05T00:08:00.094Z,52.46
2022-08-05T00:08:51.597Z,52.36
2022-08-05T00:09:51.601Z,52.17
2022-08-05T00:10:51.582Z,52.56
2022-08-05T00:11:55.904Z,52.27
2022-08-05T00:12:56.548Z,52.08
2022-08-05T00:13:52.901Z,52.20
2022-08-05T00:14:51.691Z,52.29
2022-08-05T00:15:56.162Z,52.58
2022-08-05T00:16:52.409Z,52.66
2022-08-05T00:17:51.517Z,52.58
2022-08-05T00:18:51.509Z,52.87
2022-08-05T00:20:02.833Z,53.26
2022-08-05T00:20:51.504Z,53.26
2022-08-05T00:21:51.496Z,53.04
2022-08-05T00:22:57.338Z,53.75
2022-08-05T00:23:53.436Z,53.75
2022-08-05T00:24:54.819Z,53.36
2022-08-05T00:25:51.448Z,54.33
2022-08-05T00:26:52.123Z,54.23
2022-08-05T00:27:51.431Z,54.13
2022-08-05T00:28:51.422Z,54.23
2022-08-05T00:29:51.419Z,53.94
2022-08-05T00:30:51.925Z,53.94
2022-08-05T00:32:09.320Z,55.20
2022-08-05T00:32:51.387Z,54.52
2022-08-05T00:34:56.350Z,54.33
2022-08-05T00:35:04.446Z,54.91
2022-08-05T00:36:15.039Z,54.91
2022-08-05T00:37:12.873Z,54.62
2022-08-05T00:37:53.334Z,54.91
2022-08-05T00:38:51.339Z,54.81
2022-08-05T00:39:58.001Z,54.62
2022-08-05T00:40:53.141Z,54.91
2022-08-05T00:41:55.260Z,54.81
2022-08-05T00:42:51.298Z,55.40
2022-08-05T00:43:51.291Z,55.49
2022-08-05T00:44:51.282Z,55.40
2022-08-05T00:45:51.278Z,55.58
2022-08-05T00:46:53.978Z,55.49
2022-08-05T00:47:56.410Z,55.78
2022-08-05T00:48:51.565Z,56.36
2022-08-05T00:49:51.919Z,56.26
2022-08-05T00:50:51.232Z,56.26
2022-08-05T00:51:52.379Z,56.46
2022-08-05T00:52:51.211Z,56.94
2022-08-05T00:54:02.086Z,56.62
2022-08-05T00:54:51.193Z,56.94
2022-08-05T00:55:51.184Z,57.50
2022-08-05T00:56:51.945Z,57.11
2022-08-05T00:57:55.332Z,57.59
2022-08-05T00:58:51.162Z,57.59
2022-08-05T00:59:51.156Z,57.50
2022-08-05T01:00:51.186Z,57.98
2022-08-05T01:01:51.196Z,57.79
2022-08-05T01:02:51.121Z,57.59
2022-08-05T01:03:51.112Z,58.27
2022-08-05T01:04:51.111Z,58.07
2022-08-05T01:05:51.420Z,58.07
2022-08-05T01:06:51.723Z,57.98
2022-08-05T01:08:29.751Z,58.17
2022-08-05T01:08:51.067Z,58.17
2022-08-05T01:09:55.640Z,58.27
2022-08-05T01:10:52.332Z,58.07
2022-08-05T01:11:51.753Z,58.17
2022-08-05T01:13:03.262Z,58.47
2022-08-05T01:13:58.264Z,58.07
2022-08-05T01:14:51.014Z,58.17
2022-08-05T01:15:51.010Z,58.17
2022-08-05T01:16:50.995Z,58.17
2022-08-05T01:17:53.983Z,58.27
2022-08-05T01:18:53.716Z,58.17
2022-08-05T01:20:01.764Z,58.56
2022-08-05T01:20:50.965Z,58.27
2022-08-05T01:21:50.950Z,58.47
2022-08-05T01:22:50.945Z,58.47
2022-08-05T01:23:53.013Z,58.47
2022-08-05T01:24:50.925Z,58.95
2022-08-05T01:25:53.647Z,58.75
2022-08-05T01:26:50.906Z,58.75
2022-08-05T01:27:55.554Z,58.65
2022-08-05T01:28:50.890Z,58.75
2022-08-05T01:29:51.702Z,58.65
2022-08-05T01:30:53.858Z,59.14
2022-08-05T01:31:50.859Z,59.14
2022-08-05T01:32:50.854Z,59.23
2022-08-05T01:33:53.671Z,59.05
2022-08-05T01:34:50.841Z,59.14
2022-08-05T01:35:53.310Z,59.05
2022-08-05T01:36:51.383Z,58.85
2022-08-05T01:37:50.808Z,59.63
2022-08-05T01:38:50.898Z,59.14
2022-08-05T01:39:50.852Z,59.14
2022-08-05T01:40:50.783Z,59.43
2022-08-05T01:41:50.772Z,59.53
2022-08-05T01:42:51.044Z,59.43
2022-08-05T01:43:50.757Z,59.63
2022-08-05T01:44:53.863Z,59.33
2022-08-05T01:45:56.473Z,59.33
2022-08-05T01:46:50.728Z,59.53
2022-08-05T01:47:54.591Z,59.82
2022-08-05T01:48:50.708Z,59.91
2022-08-05T01:50:01.721Z,59.53
2022-08-05T01:50:51.992Z,58.95
2022-08-05T01:51:51.909Z,59.63
2022-08-05T01:52:51.431Z,59.43
2022-08-05T01:53:57.517Z,59.53
2022-08-05T01:54:52.813Z,59.50
2022-08-05T01:55:50.646Z,59.69
2022-08-05T01:58:10.806Z,59.98
2022-08-05T01:58:11.341Z,60.37
2022-08-05T01:58:51.024Z,60.66
2022-08-05T01:59:50.610Z,61.05
2022-08-05T02:00:50.610Z,60.47
2022-08-05T02:01:50.628Z,60.95
2022-08-05T02:02:53.698Z,60.66
2022-08-05T02:03:50.575Z,60.85
2022-08-05T02:04:50.565Z,60.95
2022-08-05T02:05:50.558Z,60.95
2022-08-05T02:06:50.545Z,61.63
2022-08-05T02:08:00.108Z,60.75
2022-08-05T02:08:58.589Z,61.15
2022-08-05T02:09:50.967Z,60.75
2022-08-05T02:10:50.509Z,61.15
2022-08-05T02:11:52.394Z,61.33
2022-08-05T02:12:51.069Z,61.05
2022-08-05T02:13:53.694Z,60.75
2022-08-05T02:14:50.476Z,61.05
2022-08-05T02:15:50.470Z,61.05
2022-08-05T02:16:53.167Z,60.85
2022-08-05T02:18:28.746Z,60.75
2022-08-05T02:18:50.439Z,61.05
2022-08-05T02:19:50.425Z,61.24
2022-08-05T02:20:50.422Z,60.95
2022-08-05T02:21:50.455Z,61.05
2022-08-05T02:22:50.407Z,60.66
2022-08-05T02:23:50.391Z,60.47
2022-08-05T02:24:51.478Z,61.15
2022-08-05T02:25:50.700Z,60.85
2022-08-05T02:26:51.869Z,60.85
2022-08-05T02:27:59.442Z,60.95
2022-08-05T02:28:50.346Z,61.33
2022-08-05T02:29:58.615Z,61.33
2022-08-05T02:30:51.667Z,61.63
2022-08-05T02:31:50.317Z,61.43
2022-08-05T02:32:50.307Z,61.24
2022-08-05T02:33:50.303Z,61.72
2022-08-05T02:34:54.912Z,61.43
2022-08-05T02:35:58.896Z,61.33
2022-08-05T02:36:50.277Z,61.24
2022-08-05T02:37:53.910Z,61.43
2022-08-05T02:38:52.932Z,61.43
2022-08-05T02:39:51.723Z,61.24
2022-08-05T02:40:50.238Z,61.43
2022-08-05T02:42:00.673Z,61.33
2022-08-05T02:42:52.739Z,61.43
2022-08-05T02:44:02.837Z,61.15
2022-08-05T02:44:50.197Z,61.24
2022-08-05T02:45:52.412Z,61.24
2022-08-05T02:46:58.692Z,61.72
2022-08-05T02:48:07.405Z,62.11
2022-08-05T02:48:50.163Z,62.30
2022-08-05T02:49:50.160Z,62.11
2022-08-05T02:50:50.148Z,62.30
2022-08-05T02:52:04.242Z,62.11
2022-08-05T02:52:50.124Z,62.01
2022-08-05T02:53:50.121Z,62.08
2022-08-05T02:54:52.171Z,62.11
2022-08-05T02:55:59.636Z,62.37
2022-08-05T02:56:50.092Z,61.89
2022-08-05T02:58:11.016Z,61.89
2022-08-05T02:58:51.669Z,62.08
2022-08-05T02:59:50.653Z,62.08
2022-08-05T03:00:50.055Z,62.08
2022-08-05T03:01:50.131Z,62.08
2022-08-05T03:02:50.034Z,62.08
2022-08-05T03:04:02.691Z,62.08
2022-08-05T03:04:53.337Z,62.27
2022-08-05T03:06:55.284Z,62.27
2022-08-05T03:06:57.086Z,62.27
2022-08-05T03:08:06.749Z,62.37
2022-08-05T03:08:52.116Z,62.27
2022-08-05T03:09:51.991Z,62.85
2022-08-05T03:11:53.047Z,62.47
2022-08-05T03:11:54.521Z,63.24
2022-08-05T03:12:51.717Z,62.95
2022-08-05T03:13:51.560Z,62.95
2022-08-05T03:14:49.922Z,63.14
2022-08-05T03:15:49.913Z,63.05
2022-08-05T03:16:51.797Z,63.24
2022-08-05T03:17:49.893Z,63.60
2022-08-05T03:18:49.886Z,63.50
2022-08-05T03:19:49.895Z,63.73
2022-08-05T03:20:49.868Z,63.60
2022-08-05T03:21:50.087Z,63.60
2022-08-05T03:22:50.629Z,64.08
2022-08-05T03:23:49.847Z,64.08
2022-08-05T03:24:50.995Z,64.08
2022-08-05T03:26:04.651Z,64.08
2022-08-05T03:26:49.808Z,64.08
2022-08-05T03:27:59.101Z,64.37
2022-08-05T03:28:49.790Z,64.27
2022-08-05T03:30:07.757Z,64.47
2022-08-05T03:30:50.979Z,64.47
2022-08-05T03:31:56.032Z,64.66
2022-08-05T03:32:49.752Z,64.56
2022-08-05T03:33:52.903Z,64.37
2022-08-05T03:34:51.290Z,64.76
2022-08-05T03:35:49.888Z,64.47
2022-08-05T03:36:49.715Z,64.85
2022-08-05T03:37:49.706Z,64.95
2022-08-05T03:38:53.230Z,64.47
2022-08-05T03:39:58.459Z,65.24
2022-08-05T03:40:49.716Z,65.24
2022-08-05T03:41:49.668Z,65.24
2022-08-05T03:42:52.018Z,65.34
2022-08-05T03:44:09.270Z,65.34
2022-08-05T03:44:49.637Z,65.53
2022-08-05T03:45:57.305Z,65.72
2022-08-05T03:46:49.618Z,65.72
2022-08-05T03:47:49.611Z,65.78
2022-08-05T03:48:49.599Z,65.92
2022-08-05T03:49:51.417Z,66.20
2022-08-05T03:50:49.594Z,65.98
2022-08-05T03:52:48.333Z,65.72
2022-08-05T03:55:06.918Z,66.75
2022-08-05T03:55:53.008Z,66.08
2022-08-05T03:56:01.330Z,66.08
2022-08-05T03:56:05.886Z,66.36
2022-08-05T03:56:49.885Z,66.85
2022-08-05T03:57:49.920Z,67.04
2022-08-05T03:58:51.275Z,68.10
2022-08-05T03:59:54.780Z,68.01
2022-08-05T04:00:51.686Z,68.20
2022-08-05T04:01:49.528Z,68.59
2022-08-05T04:02:58.649Z,69.07
2022-08-05T04:04:09.296Z,69.17
2022-08-05T04:04:49.449Z,70.52
2022-08-05T04:05:49.452Z,71.78
2022-08-05T04:06:51.273Z,72.55
2022-08-05T04:07:57.338Z,72.36
2022-08-05T04:08:49.423Z,72.71
2022-08-05T04:09:53.642Z,73.00
2022-08-05T04:10:49.388Z,73.44
2022-08-05T04:11:52.578Z,73.54
2022-08-05T04:12:49.370Z,74.21
2022-08-05T04:13:53.552Z,75.57
2022-08-05T04:14:49.351Z,75.43
2022-08-05T04:16:02.848Z,75.53
2022-08-05T04:16:49.327Z,75.82
2022-08-05T04:17:57.247Z,75.82
2022-08-05T04:18:54.153Z,75.92
2022-08-05T04:19:54.545Z,76.07
2022-08-05T04:20:49.284Z,77.03
2022-08-05T04:22:09.219Z,76.93
2022-08-05T04:22:49.286Z,77.13
2022-08-05T04:24:05.954Z,77.33
2022-08-05T04:24:52.956Z,77.71
2022-08-05T04:25:57.123Z,77.51
2022-08-05T04:26:49.219Z,78.00
2022-08-05T04:27:58.150Z,78.34
2022-08-05T04:28:51.198Z,78.44
2022-08-05T04:29:49.199Z,78.73
2022-08-05T04:30:49.178Z,78.92
2022-08-05T04:31:49.624Z,79.31
2022-08-05T04:32:49.163Z,80.18
2022-08-05T04:34:18.549Z,79.89
2022-08-05T04:34:49.141Z,79.50
2022-08-05T04:36:16.609Z,80.66
2022-08-05T04:36:50.216Z,80.46
2022-08-05T04:38:02.567Z,80.66
2022-08-05T04:38:51.115Z,80.76
2022-08-05T04:39:52.655Z,81.52
2022-08-05T04:40:50.725Z,81.43
2022-08-05T04:41:51.010Z,81.43
2022-08-05T04:42:49.046Z,81.04
2022-08-05T04:43:52.172Z,82.35
2022-08-05T04:44:49.022Z,82.45
2022-08-05T04:45:54.723Z,82.93
2022-08-05T04:46:48.999Z,82.93
2022-08-05T04:47:48.991Z,83.22
2022-08-05T04:48:48.980Z,83.41
2022-08-05T04:50:03.098Z,83.41
2022-08-05T04:51:02.484Z,84.09
2022-08-05T04:51:48.948Z,84.95
2022-08-05T04:52:48.934Z,85.34
2022-08-05T04:53:48.925Z,85.72
2022-08-05T04:54:49.483Z,85.43
2022-08-05T04:56:14.643Z,85.63
2022-08-05T04:56:48.893Z,86.49
2022-08-05T04:57:51.601Z,86.69
2022-08-05T04:58:48.875Z,86.30
2022-08-05T04:59:48.861Z,87.07
2022-08-05T05:00:50.572Z,86.40
2022-08-05T05:02:07.542Z,86.83
2022-08-05T05:02:48.920Z,86.93
2022-08-05T05:03:48.816Z,86.88
2022-08-05T05:04:50.654Z,86.65
2022-08-05T05:06:36.687Z,86.83
2022-08-05T05:06:52.105Z,86.83
2022-08-05T05:07:56.084Z,86.65
2022-08-05T05:08:50.170Z,87.22
2022-08-05T05:09:48.748Z,87.12
2022-08-05T05:10:55.785Z,87.26
2022-08-05T05:11:54.306Z,87.26
2022-08-05T05:12:48.714Z,86.88
2022-08-05T05:13:48.703Z,87.07
2022-08-05T05:14:50.832Z,86.88
2022-08-05T05:15:57.471Z,86.88
2022-08-05T05:16:48.669Z,87.36
2022-08-05T05:17:56.882Z,87.74
2022-08-05T05:19:16.482Z,87.46
2022-08-05T05:19:48.636Z,87.36
2022-08-05T05:20:50.452Z,87.36
2022-08-05T05:21:56.287Z,87.94
2022-08-05T05:24:03.711Z,87.94
2022-08-05T05:24:57.687Z,87.74
2022-08-05T05:26:58.523Z,87.74
2022-08-05T05:27:58.486Z,88.04
2022-08-05T05:30:03.881Z,88.23
2022-08-05T05:31:02.922Z,88.04
2022-08-05T05:32:02.914Z,87.84
2022-08-05T05:33:09.029Z,88.04
2022-08-05T05:34:02.978Z,87.55
2022-08-05T05:35:03.189Z,88.51
2022-08-05T05:36:02.882Z,88.32
2022-08-05T05:37:02.856Z,88.04
2022-08-05T05:38:02.849Z,88.65
2022-08-05T05:39:03.858Z,88.56
2022-08-05T05:40:02.823Z,88.37
2022-08-05T05:41:02.824Z,88.27
2022-08-05T05:42:02.802Z,88.13
2022-08-05T05:43:02.795Z,88.46
2022-08-05T05:44:02.778Z,87.79
2022-08-05T05:45:03.054Z,87.88
2022-08-05T05:46:02.756Z,88.17
2022-08-05T05:47:04.190Z,87.98
2022-08-05T05:48:07.903Z,87.98
2022-08-05T05:49:06.480Z,88.51
2022-08-05T05:50:04.210Z,88.60
2022-08-05T05:51:14.760Z,88.60
2022-08-05T05:52:05.998Z,88.41
2022-08-05T05:53:02.677Z,88.31
2022-08-05T05:54:02.676Z,88.31
2022-08-05T05:55:07.316Z,88.99
2022-08-05T05:56:03.248Z,88.12
2022-08-05T05:57:02.647Z,88.51
2022-08-05T05:58:02.623Z,88.89
2022-08-05T05:59:03.532Z,88.60
2022-08-05T06:00:02.602Z,88.70
2022-08-05T06:01:12.725Z,88.99
2022-08-05T06:02:02.580Z,89.18
2022-08-05T06:03:02.577Z,88.79
2022-08-05T06:04:03.652Z,89.28
2022-08-05T06:05:03.563Z,88.60
2022-08-05T06:06:02.543Z,88.70
2022-08-05T06:07:02.551Z,88.70
2022-08-05T06:08:03.747Z,88.41
2022-08-05T06:09:03.823Z,88.12
2022-08-05T06:10:04.666Z,88.02
2022-08-05T06:11:02.484Z,88.07
2022-08-05T06:12:03.048Z,87.40
2022-08-05T06:13:02.465Z,87.68
2022-08-05T06:14:02.451Z,87.40
2022-08-05T06:15:02.441Z,87.59
2022-08-05T06:16:30.229Z,87.63
2022-08-05T06:17:22.215Z,87.53
2022-08-05T06:18:02.424Z,87.34
2022-08-05T06:19:05.631Z,86.96
2022-08-05T06:20:02.388Z,86.96
2022-08-05T06:21:02.378Z,86.66
2022-08-05T06:22:02.372Z,86.66
2022-08-05T06:23:02.357Z,86.18
2022-08-05T06:24:02.347Z,86.38
2022-08-05T06:25:59.408Z,86.32
2022-08-05T06:26:13.702Z,86.22
2022-08-05T06:27:02.316Z,85.94
2022-08-05T06:28:11.172Z,85.45
2022-08-05T06:29:03.716Z,85.64
2022-08-05T06:30:04.225Z,85.06
2022-08-05T06:31:02.277Z,84.63
2022-08-05T06:32:02.318Z,84.43
2022-08-05T06:33:02.353Z,84.43
2022-08-05T06:34:07.357Z,84.05
2022-08-05T06:35:05.959Z,83.66
2022-08-05T06:36:07.449Z,83.41
2022-08-05T06:37:02.217Z,83.03
2022-08-05T06:38:05.618Z,82.45
2022-08-05T06:39:02.289Z,82.64
2022-08-05T06:40:02.544Z,81.96
2022-08-05T06:41:02.175Z,81.57
2022-08-05T06:42:04.015Z,80.71
2022-08-05T06:43:02.153Z,81.04
2022-08-05T06:44:02.143Z,81.32
2022-08-05T06:45:05.233Z,80.74
2022-08-05T06:46:04.075Z,80.69
2022-08-05T06:47:02.404Z,80.11
2022-08-05T06:48:44.209Z,80.11
2022-08-05T06:49:02.615Z,79.24
2022-08-05T06:50:04.958Z,79.43
2022-08-05T06:51:02.082Z,78.85
2022-08-05T06:52:02.066Z,78.85
2022-08-05T06:53:03.760Z,78.75
2022-08-05T06:54:02.443Z,78.56
2022-08-05T06:55:02.430Z,78.27
2022-08-05T06:56:02.033Z,78.89
2022-08-05T06:57:57.737Z,78.11
2022-08-05T06:58:11.744Z,77.82
2022-08-05T06:59:02.010Z,78.41
2022-08-05T07:00:02.007Z,78.31
2022-08-05T07:01:02.006Z,77.92
2022-08-05T07:02:01.982Z,78.11
2022-08-05T07:03:01.966Z,77.63
2022-08-05T07:04:02.422Z,77.09
2022-08-05T07:05:02.006Z,76.51
2022-08-05T07:06:01.970Z,75.92
2022-08-05T07:07:01.934Z,76.45
2022-08-05T07:08:01.952Z,75.57
2022-08-05T07:09:04.138Z,76.15
2022-08-05T07:10:03.626Z,74.51
2022-08-05T07:11:02.062Z,74.60
2022-08-05T07:12:01.884Z,74.02
2022-08-05T07:13:01.915Z,73.77
2022-08-05T07:14:01.886Z,73.19
2022-08-05T07:15:01.862Z,72.71
2022-08-05T07:16:04.785Z,72.45
2022-08-05T07:17:58.330Z,71.96
2022-08-05T07:18:07.439Z,70.99
2022-08-05T07:19:01.830Z,70.54
2022-08-05T07:20:32.764Z,70.35
2022-08-05T07:21:04.775Z,69.76
2022-08-05T07:22:01.803Z,69.96
2022-08-05T07:23:01.799Z,69.86
2022-08-05T07:24:01.794Z,69.48
2022-08-05T07:25:23.720Z,69.18
2022-08-05T07:26:01.773Z,69.28
2022-08-05T07:27:02.943Z,69.09
2022-08-05T07:28:07.354Z,68.79
2022-08-05T07:29:01.773Z,68.60
2022-08-05T07:30:30.162Z,68.99
2022-08-05T07:31:01.736Z,68.89
2022-08-05T07:32:01.729Z,68.89
2022-08-05T07:33:01.720Z,68.79
2022-08-05T07:34:01.709Z,68.41
2022-08-05T07:35:56.766Z,68.44
2022-08-05T07:36:20.039Z,68.35
2022-08-05T07:37:01.688Z,68.44
2022-08-05T07:38:01.687Z,67.96
2022-08-05T07:39:01.725Z,68.05
2022-08-05T07:40:25.822Z,68.35
2022-08-05T07:41:16.657Z,67.86
2022-08-05T07:42:13.712Z,67.63
2022-08-05T07:43:04.775Z,67.05
2022-08-05T07:44:01.637Z,66.95
2022-08-05T07:45:01.633Z,66.95
2022-08-05T07:46:01.626Z,67.05
2022-08-05T07:47:01.614Z,66.66
2022-08-05T07:48:01.604Z,66.95
2022-08-05T07:49:05.562Z,66.86
2022-08-05T07:50:01.595Z,66.82
2022-08-05T07:51:01.585Z,66.92
2022-08-05T07:52:01.578Z,66.72
2022-08-05T07:53:01.567Z,66.86
2022-08-05T07:54:01.933Z,66.27
2022-08-05T07:55:01.553Z,66.27
2022-08-05T07:56:05.535Z,66.37
2022-08-05T07:57:22.503Z,66.56
2022-08-05T07:58:03.207Z,65.89
2022-08-05T07:59:01.528Z,65.53
2022-08-05T08:00:01.532Z,65.14
2022-08-05T08:01:01.595Z,64.75
2022-08-05T08:02:01.501Z,64.46
2022-08-05T08:03:14.208Z,63.39
2022-08-05T08:04:01.604Z,63.01
2022-08-05T08:05:01.480Z,63.10
2022-08-05T08:06:01.469Z,62.52
2022-08-05T08:07:01.470Z,62.52
2022-08-05T08:08:01.462Z,61.71
2022-08-05T08:09:01.469Z,61.61
2022-08-05T08:10:01.519Z,61.04
2022-08-05T08:11:01.438Z,61.71
2022-08-05T08:12:09.129Z,62.01
2022-08-05T08:13:01.674Z,61.61
2022-08-05T08:14:01.416Z,61.81
2022-08-05T08:15:02.645Z,61.61
2022-08-05T08:16:34.928Z,61.52
2022-08-05T08:17:01.392Z,61.32
2022-08-05T08:18:02.203Z,61.81
2022-08-05T08:19:01.378Z,61.71
2022-08-05T08:20:22.572Z,61.81
2022-08-05T08:21:02.747Z,61.71
2022-08-05T08:22:01.352Z,61.52
2022-08-05T08:23:03.087Z,62.19
2022-08-05T08:24:04.946Z,62.39
2022-08-05T08:25:03.509Z,62.46
2022-08-05T08:26:02.731Z,62.39
2022-08-05T08:27:01.329Z,62.26
2022-08-05T08:28:01.313Z,62.16
2022-08-05T08:29:21.746Z,62.36
2022-08-05T08:30:06.037Z,62.26
2022-08-05T08:31:01.296Z,62.36
2022-08-05T08:32:01.279Z,62.46
2022-08-05T08:33:04.419Z,62.82
2022-08-05T08:34:01.262Z,63.01
2022-08-05T08:35:01.262Z,63.01
2022-08-05T08:36:29.804Z,63.40
2022-08-05T08:37:04.904Z,63.10
2022-08-05T08:38:01.240Z,63.20
2022-08-05T08:39:01.695Z,63.20
2022-08-05T08:40:01.301Z,63.40
2022-08-05T08:41:01.216Z,63.49
2022-08-05T08:42:02.112Z,63.30
2022-08-05T08:45:16.227Z,63.30
2022-08-05T08:45:22.114Z,63.49
2022-08-05T08:45:22.228Z,62.82
2022-08-05T08:46:01.171Z,62.33
2022-08-05T08:47:01.166Z,61.65
2022-08-05T08:48:12.428Z,61.65
2022-08-05T08:50:03.945Z,60.78
2022-08-05T08:50:14.609Z,60.49
2022-08-05T08:51:07.763Z,59.69
2022-08-05T08:52:03.487Z,59.52
2022-08-05T08:53:01.189Z,59.20
2022-08-05T08:54:01.105Z,59.39
2022-08-05T08:55:01.103Z,58.81
2022-08-05T08:56:03.117Z,58.49
2022-08-05T08:57:01.082Z,58.98
2022-08-05T08:58:01.077Z,59.17
2022-08-05T08:59:01.070Z,59.84
2022-08-05T09:00:01.058Z,59.36
2022-08-05T09:01:01.122Z,59.46
2022-08-05T09:02:01.302Z,59.94
2022-08-05T09:03:01.036Z,59.66
2022-08-05T09:04:01.023Z,59.75
2022-08-05T09:05:17.245Z,59.94
2022-08-05T09:06:08.470Z,60.04
2022-08-05T09:07:00.998Z,59.75
2022-08-05T09:08:00.989Z,59.82
2022-08-05T09:09:01.366Z,59.23
2022-08-05T09:10:00.978Z,59.63
2022-08-05T09:11:00.964Z,60.21
2022-08-05T09:12:06.046Z,60.59
2022-08-05T09:13:05.139Z,60.95
2022-08-05T09:14:54.727Z,61.72
2022-08-05T09:15:05.862Z,62.69
2022-08-05T09:16:00.920Z,62.85
2022-08-05T09:17:00.914Z,63.63
2022-08-05T09:18:00.902Z,64.37
2022-08-05T09:19:00.895Z,64.56
2022-08-05T09:20:02.492Z,65.40
2022-08-05T09:21:00.879Z,66.17
2022-08-05T09:22:22.290Z,66.85
2022-08-05T09:23:04.876Z,66.85
2022-08-05T09:24:02.526Z,67.24
2022-08-05T09:25:00.843Z,67.43
2022-08-05T09:26:06.429Z,67.62
2022-08-05T09:27:00.817Z,67.97
2022-08-05T09:28:05.016Z,67.88
2022-08-05T09:29:00.799Z,68.10
2022-08-05T09:30:06.031Z,67.62
2022-08-05T09:31:00.778Z,67.43
2022-08-05T09:32:42.934Z,67.72
2022-08-05T09:33:00.763Z,67.82
2022-08-05T09:34:00.751Z,67.14
2022-08-05T09:35:00.743Z,67.04
2022-08-05T09:36:06.086Z,67.43
2022-08-05T09:37:00.728Z,67.33
2022-08-05T09:38:17.325Z,67.43
2022-08-05T09:39:00.744Z,67.08
2022-08-05T09:40:00.744Z,66.69
2022-08-05T09:41:00.681Z,66.40
2022-08-05T09:42:00.666Z,66.78
2022-08-05T09:43:00.660Z,66.30
2022-08-05T09:44:00.655Z,66.05
2022-08-05T09:45:17.507Z,65.95
2022-08-05T09:46:06.056Z,65.75
2022-08-05T09:47:00.620Z,65.37
2022-08-05T09:48:00.613Z,65.30
2022-08-05T09:49:08.005Z,65.30
2022-08-05T09:50:03.306Z,65.01
2022-08-05T09:51:00.588Z,64.56
2022-08-05T09:52:00.572Z,64.07
2022-08-05T09:53:00.567Z,63.43
2022-08-05T09:54:00.639Z,63.24
2022-08-05T09:55:00.548Z,62.20
2022-08-05T09:56:11.421Z,62.10
2022-08-05T09:57:01.354Z,61.75
2022-08-05T09:58:00.711Z,61.26
2022-08-05T09:59:00.520Z,60.52
2022-08-05T10:00:03.651Z,59.97
2022-08-05T10:01:00.505Z,59.97
2022-08-05T10:02:00.486Z,59.61
2022-08-05T10:03:00.490Z,59.12
2022-08-05T10:04:00.676Z,58.34
2022-08-05T10:05:00.462Z,58.44
2022-08-05T10:06:02.707Z,58.25
2022-08-05T10:07:01.676Z,58.25
2022-08-05T10:08:10.962Z,57.79
2022-08-05T10:09:00.431Z,57.21
2022-08-05T10:10:15.244Z,56.62
2022-08-05T10:11:00.415Z,56.75
2022-08-05T10:12:02.846Z,56.65
2022-08-05T10:13:00.402Z,56.26
2022-08-05T10:14:00.401Z,56.10
2022-08-05T10:15:00.398Z,55.83
2022-08-05T10:16:00.375Z,54.99
2022-08-05T10:17:00.373Z,53.85
2022-08-05T10:18:00.360Z,53.28
2022-08-05T10:19:00.383Z,52.44
2022-08-05T10:20:04.240Z,51.56
2022-08-05T10:21:06.138Z,51.26
2022-08-05T10:22:00.338Z,50.80
2022-08-05T10:23:00.332Z,49.93
2022-08-05T10:24:01.316Z,49.95
2022-08-05T10:25:00.322Z,49.93
2022-08-05T10:26:00.322Z,48.75
2022-08-05T10:27:01.255Z,48.83
2022-08-05T10:28:13.311Z,48.83
2022-08-05T10:29:00.464Z,49.12
2022-08-05T10:30:07.105Z,48.73
2022-08-05T10:32:47.910Z,48.83
2022-08-05T10:32:51.500Z,49.02
2022-08-05T10:33:00.942Z,48.24
2022-08-05T10:34:00.271Z,48.56
2022-08-05T10:35:00.932Z,47.90
2022-08-05T10:36:00.274Z,47.34
2022-08-05T10:37:00.256Z,46.78
2022-08-05T10:38:00.252Z,46.29
2022-08-05T10:39:00.323Z,46.21
2022-08-05T10:40:16.930Z,46.43
2022-08-05T10:41:00.268Z,46.14
2022-08-05T10:42:01.196Z,45.67
2022-08-05T10:43:00.226Z,45.18
2022-08-05T10:44:00.223Z,44.62
2022-08-05T10:45:00.226Z,44.32
2022-08-05T10:46:06.558Z,44.44
2022-08-05T10:47:00.220Z,43.77
2022-08-05T10:48:29.779Z,42.72
2022-08-05T10:49:09.550Z,42.82
2022-08-05T10:50:20.687Z,42.52
2022-08-05T10:51:00.212Z,42.82
2022-08-05T10:52:02.473Z,42.65
2022-08-05T10:53:00.293Z,42.74
2022-08-05T10:54:01.639Z,42.35
2022-08-05T10:55:00.194Z,42.35
2022-08-05T10:56:05.223Z,42.15
2022-08-05T10:57:00.186Z,42.15
2022-08-05T10:58:00.177Z,42.82
2022-08-05T10:59:11.389Z,42.62
2022-08-05T11:00:02.840Z,42.91
2022-08-05T11:01:01.929Z,43.04
2022-08-05T11:02:03.732Z,42.65
2022-08-05T11:03:24.923Z,41.96
2022-08-05T11:04:00.214Z,42.47
2022-08-05T11:05:00.307Z,42.08
2022-08-05T11:06:00.155Z,42.25
2022-08-05T11:07:00.154Z,41.96
2022-08-05T11:08:01.813Z,42.03
2022-08-05T11:09:00.157Z,42.80
2022-08-05T11:10:03.619Z,42.78
2022-08-05T11:11:02.282Z,43.34
2022-08-05T11:12:00.135Z,43.24
2022-08-05T11:13:01.300Z,43.52
2022-08-05T11:14:00.129Z,44.10
2022-08-05T11:15:01.267Z,44.10
2022-08-05T11:16:02.046Z,44.40
2022-08-05T11:17:56.709Z,44.57
2022-08-05T11:18:03.751Z,44.77
2022-08-05T11:19:00.109Z,45.36
2022-08-05T11:20:10.613Z,45.26
2022-08-05T11:21:00.136Z,45.08
2022-08-05T11:22:00.103Z,44.49
2022-08-05T11:23:09.051Z,44.03
2022-08-05T11:24:29.815Z,43.66
2022-08-05T11:26:09.038Z,42.60
2022-08-05T11:27:05.558Z,42.58
2022-08-05T11:29:13.795Z,43.24
2022-08-05T11:30:11.037Z,43.63
2022-08-05T11:32:15.841Z,43.34
2022-08-05T11:33:20.943Z,42.97
2022-08-05T11:35:09.938Z,43.09
2022-08-05T11:36:10.265Z,42.90
2022-08-05T11:38:29.466Z,42.88
2022-08-05T11:39:15.431Z,42.60
2022-08-05T11:41:56.506Z,42.41
2022-08-05T11:42:19.860Z,42.60
2022-08-05T11:44:53.164Z,42.21
2022-08-05T11:46:14.583Z,41.62
2022-08-05T11:47:49.481Z,41.99
2022-08-05T11:48:29.819Z,42.07
2022-08-05T11:50:34.295Z,42.09
2022-08-05T11:51:49.566Z,41.92
2022-08-05T11:53:42.042Z,41.33
2022-08-05T11:54:40.555Z,40.74
2022-08-05T11:56:50.505Z,40.53
2022-08-05T11:58:10.423Z,41.00
2022-08-05T11:59:50.629Z,41.54
2022-08-05T12:00:52.843Z,41.93
2022-08-05T12:02:54.279Z,42.89
2022-08-05T12:03:55.589Z,42.99
2022-08-05T12:04:59.712Z,42.50
2022-08-05T12:05:54.175Z,42.50
2022-08-05T12:06:54.432Z,42.32
2022-08-05T12:08:03.553Z,43.10
2022-08-05T12:08:54.154Z,42.35
2022-08-05T12:09:54.149Z,41.96
2022-08-05T12:10:54.149Z,41.97
2022-08-05T12:11:54.145Z,41.58
2022-08-05T12:12:58.131Z,41.50
2022-08-05T12:13:54.133Z,40.92
2022-08-05T12:14:54.131Z,40.92
2022-08-05T12:15:55.814Z,41.00
2022-08-05T12:16:54.125Z,40.90
2022-08-05T12:18:03.277Z,41.46
2022-08-05T12:18:54.119Z,41.27
2022-08-05T12:20:27.526Z,41.96
2022-08-05T12:20:54.116Z,42.05
2022-08-05T12:21:54.103Z,42.05
2022-08-05T12:22:54.101Z,41.56
2022-08-05T12:23:54.097Z,41.76
2022-08-05T12:24:54.102Z,41.29
2022-08-05T12:25:56.628Z,41.49
2022-08-05T12:26:54.088Z,41.50
2022-08-05T12:27:54.085Z,40.63
2022-08-05T12:28:54.078Z,40.92
2022-08-05T12:29:57.004Z,40.72
2022-08-05T12:30:54.069Z,40.90
2022-08-05T12:31:54.503Z,41.46
2022-08-05T12:32:54.068Z,41.96
2022-08-05T12:33:54.059Z,42.22
2022-08-05T12:34:54.054Z,42.03
2022-08-05T12:35:54.127Z,41.83
2022-08-05T12:36:54.052Z,42.69
2022-08-05T12:37:54.050Z,42.48
2022-08-05T12:38:54.077Z,42.77
2022-08-05T12:39:54.119Z,42.77
2022-08-05T12:40:54.039Z,42.97
2022-08-05T12:41:57.967Z,43.04
2022-08-05T12:42:54.022Z,43.04
2022-08-05T12:43:54.015Z,43.53
2022-08-05T12:44:54.018Z,43.43
2022-08-05T12:45:54.017Z,43.92
2022-08-05T12:46:54.005Z,43.82
2022-08-05T12:48:01.367Z,43.53
2022-08-05T12:48:53.997Z,43.51
2022-08-05T12:50:02.468Z,44.29
2022-08-05T12:50:53.987Z,43.90
2022-08-05T12:52:12.687Z,44.19
2022-08-05T12:52:53.983Z,44.38
2022-08-05T12:53:55.685Z,44.38
2022-08-05T12:54:53.967Z,44.19
2022-08-05T12:55:53.960Z,43.92
2022-08-05T12:56:53.953Z,43.85
2022-08-05T12:58:38.830Z,43.46
2022-08-05T12:58:59.724Z,43.10
2022-08-05T13:01:57.647Z,42.83
2022-08-05T13:02:01.800Z,42.17
2022-08-05T13:02:03.141Z,41.80
2022-08-05T13:02:55.726Z,41.50
2022-08-05T13:03:53.937Z,40.82
2022-08-05T13:04:54.717Z,40.70
2022-08-05T13:05:53.914Z,40.78
2022-08-05T13:06:53.911Z,41.83
2022-08-05T13:08:00.180Z,42.52
2022-08-05T13:08:54.068Z,42.40
2022-08-05T13:09:56.999Z,42.68